Time;durP1;ratioP1;P1;durP2;ratioP2;P2;SDS_P1;SDS_P2;PMS_P1;PMS_P2;Temp;Humidity;BMP_temperature;BMP_pressure;BME280_temperature;BME280_humidity;BME280_pressure;Samples;Min_cycle;Max_cycle;Signal;HPM_P1;HPM_P2
2022/11/18 00:01:52;;;;;;;1.73;0.60;;;9.40;83.50;;;7.86;100.00;94355.41;4945186;28;20431;-65
2022/11/18 00:04:19;;;;;;;2.08;0.95;;;9.40;83.40;;;7.83;100.00;94348.00;4932234;28;20370;-67
2022/11/18 00:06:45;;;;;;;2.53;0.80;;;9.30;83.60;;;7.83;100.00;94345.38;4929383;28;20385;-64
2022/11/18 00:09:11;;;;;;;1.63;0.70;;;9.40;83.40;;;7.83;100.00;94347.19;4960448;28;20763;-64
2022/11/18 00:14:26;;;;;;;3.47;1.08;;;9.40;83.50;;;7.81;100.00;94347.41;4933922;28;20390;-65
2022/11/18 00:16:58;;;;;;;1.70;0.77;;;9.40;83.30;;;7.81;100.00;94347.41;4899076;28;20872;-64
2022/11/18 00:19:29;;;;;;;2.35;0.73;;;9.40;83.40;;;7.82;100.00;94348.22;4927578;28;20420;-65
2022/11/18 00:21:55;;;;;;;1.27;0.63;;;9.50;83.40;;;7.82;100.00;94346.41;4915605;28;20376;-65
2022/11/18 00:24:22;;;;;;;3.30;0.98;;;9.50;83.20;;;7.83;100.00;94337.53;4912469;28;20370;-65
2022/11/18 00:26:48;;;;;;;2.33;0.80;;;9.50;83.30;;;7.83;100.00;94337.53;4908194;28;20355;-64
2022/11/18 00:29:14;;;;;;;2.45;0.82;;;9.60;83.10;;;7.83;100.00;94342.75;4928332;28;21061;-65
2022/11/18 00:31:40;;;;;;;2.22;0.70;;;9.50;83.20;;;7.86;100.00;94331.06;4926033;28;20386;-65
2022/11/18 00:34:11;;;;;;;1.92;1.10;;;9.60;83.10;;;7.86;100.00;94334.47;4927829;28;20512;-67
2022/11/18 00:36:38;;;;;;;2.92;0.70;;;9.60;83.10;;;7.87;100.00;94336.06;4929386;28;20440;-65
2022/11/18 00:39:05;;;;;;;2.80;0.82;;;9.60;83.30;;;7.88;100.00;94337.69;4908145;28;20436;-66
2022/11/18 00:44:15;;;;;;;1.60;0.90;;;9.60;83.00;;;7.91;100.00;94337.25;4914544;28;20899;-65
2022/11/18 00:46:41;;;;;;;2.22;0.90;;;9.70;83.00;;;7.93;100.00;94334.44;4919136;28;20686;-65
2022/11/18 00:49:08;;;;;;;2.53;0.80;;;9.70;83.00;;;7.94;100.00;94329.00;4898557;28;20501;-65
2022/11/18 00:51:34;;;;;;;2.80;0.95;;;9.70;82.90;;;7.93;100.00;94330.00;4880809;28;20490;-65
2022/11/18 00:54:00;;;;;;;2.28;1.10;;;9.70;82.80;;;7.95;100.00;94321.94;4940879;28;20379;-65
2022/11/18 00:56:27;;;;;;;2.53;1.00;;;9.70;82.60;;;7.95;100.00;94317.50;4907893;28;20520;-66
2022/11/18 00:58:53;;;;;;;2.08;1.02;;;9.70;83.00;;;7.95;100.00;94309.66;4949272;28;20416;-64
2022/11/18 01:01:21;;;;;;;4.07;0.88;;;9.70;83.20;;;7.95;100.00;94312.25;4949298;28;20206;-66
2022/11/18 01:03:47;;;;;;;3.63;0.80;;;9.70;82.80;;;7.94;100.00;94315.09;4931298;28;20473;-65
2022/11/18 01:06:13;;;;;;;1.77;0.70;;;9.70;83.00;;;7.93;100.00;94314.31;4910179;28;20690;-65
2022/11/18 01:08:39;;;;;;;2.28;0.90;;;9.70;83.00;;;7.94;100.00;94308.03;4942355;28;20476;-65
2022/11/18 01:13:53;;;;;;;2.97;0.70;;;9.60;82.90;;;7.89;100.00;94320.97;4931826;28;20207;-65
2022/11/18 01:16:24;;;;;;;1.88;0.60;;;9.50;83.10;;;7.87;100.00;94315.13;4893964;28;20350;-65
2022/11/18 01:18:50;;;;;;;2.22;0.73;;;9.50;83.30;;;7.83;100.00;94308.75;4926608;28;20585;-65
2022/11/18 01:21:16;;;;;;;3.30;0.68;;;9.50;83.40;;;7.82;100.00;94322.03;4948009;28;20362;-66
2022/11/18 01:23:42;;;;;;;1.75;0.73;;;9.40;83.60;;;7.78;100.00;94316.44;4913448;28;20359;-64
2022/11/18 01:26:11;;;;;;;1.55;0.52;;;9.40;83.70;;;7.75;100.00;94318.69;4906211;28;20517;-65
2022/11/18 01:28:37;;;;;;;2.20;0.80;;;9.30;84.20;;;7.74;100.00;94322.31;4926619;28;20332;-67
2022/11/18 01:31:15;;;;;;;1.42;0.60;;;9.40;84.20;;;7.73;100.00;94305.81;4957013;22;20097;-66
2022/11/18 01:33:41;;;;;;;1.92;0.75;;;9.30;84.10;;;7.71;100.00;94318.31;4928685;28;20372;-66
2022/11/18 01:36:20;;;;;;;1.30;0.63;;;9.40;84.30;;;7.71;100.00;94305.25;4910114;28;20716;-66
2022/11/18 01:38:46;;;;;;;1.23;0.60;;;9.40;84.30;;;7.66;100.00;94308.47;4911265;28;20436;-66
2022/11/18 01:41:12;;;;;;;0.93;0.57;;;9.30;84.20;;;7.65;100.00;94295.63;4915238;28;20209;-66
2022/11/18 01:43:57;;;;;;;1.15;0.50;;;9.30;84.40;;;7.65;100.00;94295.63;4930722;27;20589;-66
2022/11/18 01:46:25;;;;;;;1.63;0.60;;;9.30;84.60;;;7.62;100.00;94296.03;4962706;28;20293;-66
2022/11/18 01:49:13;;;;;;;1.23;0.60;;;9.30;84.60;;;7.63;100.00;94297.66;4930939;28;20320;-66
2022/11/18 01:51:54;;;;;;;1.05;0.50;;;9.30;84.40;;;7.61;100.00;94289.22;4913096;28;20403;-67
2022/11/18 01:54:29;;;;;;;2.95;0.50;;;9.30;84.60;;;7.58;100.00;94279.97;4939031;28;20209;-65
2022/11/18 01:56:58;;;;;;;0.85;0.40;;;9.30;84.40;;;7.58;100.00;94284.41;4940498;28;20519;-66
2022/11/18 01:59:27;;;;;;;0.90;0.45;;;9.40;84.40;;;7.58;100.00;94281.78;4919817;28;20295;-66
2022/11/18 02:01:55;;;;;;;0.95;0.60;;;9.40;84.40;;;7.59;100.00;94288.63;4911653;28;20313;-66
2022/11/18 02:04:22;;;;;;;2.92;0.80;;;9.40;84.30;;;7.60;100.00;94287.63;4911139;28;20256;-67
2022/11/18 02:06:48;;;;;;;1.77;0.43;;;9.40;84.50;;;7.60;100.00;94282.38;4908357;28;20784;-66
2022/11/18 02:09:14;;;;;;;0.68;0.38;;;9.40;84.40;;;7.60;100.00;94292.84;4926460;28;20502;-66
2022/11/18 02:11:50;;;;;;;1.67;0.65;;;9.40;84.10;;;7.58;100.00;94295.69;4903289;28;20444;-67
2022/11/18 02:14:25;;;;;;;1.85;0.60;;;9.40;84.10;;;7.59;100.00;94292.03;4932466;28;20364;-66
2022/11/18 02:17:26;;;;;;;1.23;0.40;;;9.40;84.10;;;7.59;100.00;94301.72;4928700;28;20367;-66
2022/11/18 02:20:22;;;;;;;1.35;0.60;;;9.40;84.10;;;7.54;100.00;94293.72;4964868;28;20361;-67
2022/11/18 02:23:10;;;;;;;1.42;0.43;;;9.20;84.30;;;7.48;100.00;94294.56;4953978;28;20452;-66
2022/11/18 02:26:01;;;;;;;0.57;0.38;;;9.10;84.80;;;7.47;100.00;94295.56;4941664;28;20644;-66
2022/11/18 02:28:36;;;;;;;1.75;0.65;;;9.10;84.90;;;7.43;100.00;94286.53;4943993;28;20557;-66
2022/11/18 02:31:20;;;;;;;1.23;0.60;;;9.10;85.10;;;7.41;100.00;94291.19;4962020;28;20740;-66
2022/11/18 02:34:29;;;;;;;1.27;0.40;;;9.00;85.20;;;7.38;100.00;94293.22;4942154;28;20032;-65
2022/11/18 02:37:22;;;;;;;1.33;0.40;;;9.00;85.40;;;7.34;100.00;94284.19;5003196;28;20037;-65
2022/11/18 02:39:58;;;;;;;1.38;0.40;;;9.00;85.60;;;7.31;100.00;94283.84;4980884;28;20028;-66
2022/11/18 02:42:25;;;;;;;0.30;0.30;;;9.00;85.60;;;7.29;100.00;94286.66;4995309;28;20060;-65
2022/11/18 02:44:55;;;;;;;0.30;0.28;;;8.90;85.80;;;7.28;100.00;94285.06;4963549;28;20090;-67
2022/11/18 02:47:21;;;;;;;1.60;0.40;;;8.90;85.80;;;7.26;100.00;94291.53;4968434;28;20575;-65
2022/11/18 02:49:51;;;;;;;0.73;0.40;;;8.90;86.00;;;7.23;100.00;94284.88;4980770;28;20048;-65
2022/11/18 02:52:17;;;;;;;6.13;0.60;;;8.80;86.20;;;7.23;100.00;94292.72;4967324;28;20342;-67
2022/11/18 02:54:43;;;;;;;1.95;0.55;;;8.80;86.30;;;7.22;100.00;94296.34;4960334;28;20356;-64
2022/11/18 02:57:09;;;;;;;0.75;0.30;;;8.80;86.30;;;7.19;100.00;94285.53;4975822;28;20322;-65
2022/11/18 02:59:35;;;;;;;1.05;0.50;;;8.80;86.40;;;7.19;100.00;94296.78;4959380;28;20322;-65
2022/11/18 03:02:01;;;;;;;2.05;0.50;;;8.80;86.40;;;7.19;100.00;94291.53;4962236;28;20036;-65
2022/11/18 03:04:27;;;;;;;1.88;0.68;;;8.80;86.30;;;7.21;100.00;94301.78;5005013;28;20028;-66
2022/11/18 03:07:29;;;;;;;1.50;0.73;;;8.80;86.30;;;7.21;100.00;94292.13;4982735;28;20643;-65
2022/11/18 03:09:55;;;;;;;1.30;0.50;;;8.90;86.40;;;7.21;100.00;94288.72;4966900;28;20541;-66
2022/11/18 03:12:39;;;;;;;1.02;0.30;;;8.90;86.30;;;7.21;100.00;94299.97;4970960;28;20669;-64
2022/11/18 03:15:44;;;;;;;0.90;0.40;;;8.90;86.30;;;7.21;100.00;94292.13;5012782;28;20037;-66
2022/11/18 03:18:45;;;;;;;1.83;0.60;;;8.90;86.30;;;7.23;100.00;94290.09;4964227;28;20396;-66
2022/11/18 03:21:20;;;;;;;1.35;0.50;;;8.90;86.20;;;7.23;100.00;94292.72;4986689;28;20782;-67
2022/11/18 03:23:58;;;;;;;1.65;0.60;;;8.90;86.20;;;7.21;100.00;94284.28;4946517;28;20041;-66
2022/11/18 03:26:32;;;;;;;1.05;0.60;;;8.90;86.40;;;7.22;100.00;94288.50;4949209;28;20590;-65
2022/11/18 03:29:05;;;;;;;0.77;0.40;;;9.00;86.40;;;7.23;100.00;94282.25;4955916;28;20563;-65
2022/11/18 03:31:42;;;;;;;1.88;0.55;;;9.00;86.10;;;7.23;100.00;94286.69;4973738;28;20480;-66
2022/11/18 03:34:24;;;;;;;2.42;1.00;;;9.00;86.20;;;7.23;100.00;94291.91;4931594;28;20486;-66
2022/11/18 03:36:52;;;;;;;3.13;0.80;;;8.90;86.40;;;7.21;100.00;94297.38;4927860;28;20457;-66
2022/11/18 03:39:19;;;;;;;1.00;0.60;;;8.90;86.60;;;7.19;100.00;94299.38;4908550;28;20589;-66
2022/11/18 03:42:20;;;;;;;2.20;0.65;;;8.80;86.70;;;7.19;100.00;94299.38;4929720;28;20744;-67
2022/11/18 03:44:51;;;;;;;3.38;0.90;;;8.80;86.80;;;7.17;100.00;94306.66;4930539;28;20414;-66
2022/11/18 03:47:23;;;;;;;2.33;0.70;;;8.80;87.00;;;7.16;100.00;94305.03;4913495;28;20442;-66
2022/11/18 03:49:56;;;;;;;2.95;0.80;;;8.80;86.90;;;7.15;100.00;94310.50;4912982;28;20365;-65
2022/11/18 03:52:28;;;;;;;1.58;0.70;;;8.80;87.10;;;7.13;100.00;94312.50;4907354;28;20365;-66
2022/11/18 03:54:56;;;;;;;1.27;0.70;;;8.70;87.20;;;7.10;100.00;94318.97;4914588;28;20410;-66
2022/11/18 03:57:32;;;;;;;0.73;0.60;;;8.70;87.50;;;7.10;100.00;94318.97;4911946;28;20474;-66
2022/11/18 04:00:10;;;;;;;1.38;0.65;;;8.70;87.60;;;7.12;100.00;94322.16;4914970;28;20399;-67
2022/11/18 04:02:36;;;;;;;1.73;0.70;;;8.80;87.20;;;7.10;100.00;94324.19;4913011;28;20373;-67
2022/11/18 04:05:03;;;;;;;1.67;0.75;;;8.80;87.20;;;7.11;100.00;94325.00;4913466;28;20364;-67
2022/11/18 04:07:51;;;;;;;1.73;0.63;;;8.80;87.30;;;7.07;100.00;94320.19;4927807;28;20491;-67
2022/11/18 04:10:38;;;;;;;1.27;0.77;;;8.70;87.50;;;7.04;100.00;94335.50;4949549;28;20669;-65
2022/11/18 04:13:11;;;;;;;1.63;0.60;;;8.60;87.90;;;7.02;100.00;94329.69;4948484;28;20079;-66
2022/11/18 04:15:38;;;;;;;1.05;0.55;;;8.50;88.20;;;7.00;100.00;94334.28;4947133;28;20282;-67
2022/11/18 04:18:05;;;;;;;1.73;0.50;;;8.50;88.10;;;6.99;100.00;94332.69;4933142;28;20422;-66
2022/11/18 04:20:32;;;;;;;2.55;1.05;;;8.60;88.10;;;6.99;100.00;94333.50;4926702;28;20324;-66
2022/11/18 04:22:59;;;;;;;3.65;1.00;;;8.50;88.00;;;6.99;100.00;94340.53;4928001;28;20487;-66
2022/11/18 04:25:25;;;;;;;2.95;0.43;;;8.60;88.00;;;6.99;100.00;94332.69;4926481;28;20445;-66
2022/11/18 04:27:51;;;;;;;1.50;0.50;;;8.60;87.70;;;6.99;100.00;94337.94;4927588;28;20372;-66
2022/11/18 04:30:18;;;;;;;1.98;0.52;;;8.60;87.70;;;7.00;100.00;94329.06;4929566;28;20361;-66
2022/11/18 04:32:44;;;;;;;1.58;0.60;;;8.50;87.60;;;6.98;100.00;94324.06;4908320;28;20788;-66
2022/11/18 04:35:10;;;;;;;4.40;3.13;;;8.60;87.60;;;7.00;100.00;94329.88;4924303;28;20299;-66
2022/11/18 04:37:37;;;;;;;0.98;0.40;;;8.60;87.50;;;7.02;100.00;94332.31;4927657;28;20598;-66
2022/11/18 04:40:04;;;;;;;1.48;0.43;;;8.60;87.10;;;7.01;100.00;94330.66;4910641;28;20714;-66
2022/11/18 04:42:30;;;;;;;2.05;0.40;;;8.60;87.20;;;7.01;100.00;94333.28;4921273;28;20574;-66
2022/11/18 04:44:56;;;;;;;0.52;0.20;;;8.60;87.00;;;7.02;100.00;94327.06;4931517;28;20523;-66
2022/11/18 04:47:22;;;;;;;1.67;0.35;;;8.60;87.00;;;7.02;100.00;94321.84;4932160;27;20474;-66
2022/11/18 04:49:48;;;;;;;0.43;0.20;;;8.60;86.90;;;7.01;100.00;94320.22;4913223;28;20457;-66
2022/11/18 04:52:14;;;;;;;0.57;0.20;;;8.60;86.60;;;7.02;100.00;94324.47;4928090;28;20478;-67
2022/11/18 04:54:40;;;;;;;0.98;0.28;;;8.60;86.40;;;7.02;100.00;94327.06;4923734;28;20369;-66
2022/11/18 04:57:06;;;;;;;0.32;0.20;;;8.60;86.20;;;7.01;100.00;94317.59;4924629;28;20527;-67
2022/11/18 04:59:33;;;;;;;1.77;0.40;;;8.60;86.20;;;7.01;100.00;94315.00;4940007;28;20333;-67
2022/11/18 05:01:59;;;;;;;0.85;0.38;;;8.60;86.20;;;7.01;100.00;94317.59;4941317;28;20351;-66
2022/11/18 05:04:31;;;;;;;0.25;0.10;;;8.60;85.90;;;7.01;100.00;94320.22;4916931;28;20309;-66
2022/11/18 05:06:58;;;;;;;0.20;0.20;;;8.60;86.00;;;7.01;100.00;94310.56;4925721;28;20338;-66
2022/11/18 05:09:24;;;;;;;0.57;0.20;;;8.60;86.00;;;7.00;100.00;94313.38;4899298;28;20418;-66
2022/11/18 05:14:35;;;;;;;0.85;0.40;;;8.50;86.10;;;7.02;100.00;94319.22;4922235;28;20352;-66
2022/11/18 05:17:02;;;;;;;0.95;0.20;;;8.60;86.10;;;7.02;100.00;94316.63;4917317;28;20551;-66
2022/11/18 05:19:28;;;;;;;0.10;0.10;;;8.60;86.10;;;7.02;100.00;94321.84;4914876;28;20252;-66
2022/11/18 05:21:54;;;;;;;0.20;0.10;;;8.60;86.10;;;7.02;100.00;94322.66;4923235;28;20463;-67
2022/11/18 05:24:22;;;;;;;0.45;0.10;;;8.60;86.20;;;7.04;100.00;94319.81;4909636;28;20460;-66
2022/11/18 05:26:50;;;;;;;0.80;0.25;;;8.60;86.20;;;7.04;100.00;94325.84;4925973;28;20401;-67
2022/11/18 05:29:18;;;;;;;0.38;0.10;;;8.60;86.10;;;7.04;100.00;94322.44;4922216;28;20574;-67
2022/11/18 05:31:45;;;;;;;0.95;0.20;;;8.60;86.10;;;7.04;100.00;94311.97;4904188;28;20369;-66
2022/11/18 05:34:11;;;;;;;0.30;0.20;;;8.60;85.90;;;7.06;100.00;94317.78;4910360;28;20314;-66
2022/11/18 05:36:37;;;;;;;0.90;0.35;;;8.60;85.90;;;7.06;100.00;94312.56;4906544;28;20407;-66
2022/11/18 05:39:03;;;;;;;1.70;0.60;;;8.60;86.10;;;7.05;100.00;94310.97;4910957;28;20369;-67
2022/11/18 05:44:14;;;;;;;1.38;0.57;;;8.60;86.10;;;7.04;100.00;94318.00;4951442;28;20446;-66
2022/11/18 05:46:40;;;;;;;1.23;0.30;;;8.60;85.90;;;7.04;100.00;94318.00;4906360;28;20432;-66
2022/11/18 05:49:07;;;;;;;0.65;0.40;;;8.60;85.80;;;7.04;100.00;94317.22;4909751;28;20294;-66
2022/11/18 05:51:33;;;;;;;0.80;0.50;;;8.60;85.70;;;7.04;100.00;94323.25;4908014;28;20360;-67
2022/11/18 05:54:05;;;;;;;0.68;0.32;;;8.60;85.70;;;7.03;100.00;94324.25;4908847;28;20807;-66
2022/11/18 05:56:37;;;;;;;0.60;0.40;;;8.50;85.50;;;7.04;100.00;94320.63;4926790;28;20581;-65
2022/11/18 05:59:03;;;;;;;1.02;0.30;;;8.50;85.40;;;7.04;100.00;94330.28;4943397;28;20515;-66
2022/11/18 06:01:43;;;;;;;0.43;0.30;;;8.60;85.60;;;7.05;100.00;94334.50;4920480;28;20324;-65
2022/11/18 06:04:27;;;;;;;1.75;0.20;;;8.60;85.50;;;7.07;100.00;94342.94;4932652;28;20403;-66
2022/11/18 06:07:02;;;;;;;0.88;0.45;;;8.60;85.50;;;7.07;100.00;94338.50;4927547;28;20839;-65
2022/11/18 06:09:31;;;;;;;0.68;0.30;;;8.60;85.20;;;7.07;100.00;94332.47;4927713;28;20333;-68
2022/11/18 06:12:00;;;;;;;0.90;0.30;;;8.60;84.90;;;7.07;100.00;94329.84;4923344;28;20365;-67
2022/11/18 06:14:41;;;;;;;0.68;0.20;;;8.60;85.10;;;7.08;100.00;94336.69;4944103;28;20347;-67
2022/11/18 06:17:15;;;;;;;0.98;0.60;;;8.60;84.80;;;7.09;100.00;94342.72;4924254;28;20433;-67
2022/11/18 06:19:41;;;;;;;1.00;0.50;;;8.60;84.70;;;7.09;100.00;94343.50;4923939;28;20325;-67
2022/11/18 06:22:08;;;;;;;2.45;0.50;;;8.70;84.90;;;7.10;100.00;94350.34;4926286;28;20490;-67
2022/11/18 06:24:34;;;;;;;1.63;0.20;;;8.60;84.40;;;7.10;100.00;94355.56;4941503;28;20570;-66
2022/11/18 06:27:00;;;;;;;0.38;0.17;;;8.60;84.40;;;7.10;100.00;94349.53;4924873;28;20463;-65
2022/11/18 06:29:26;;;;;;;2.35;0.55;;;8.60;84.40;;;7.11;100.00;94361.59;4924509;28;20386;-66
2022/11/18 06:31:52;;;;;;;2.03;1.42;;;8.60;84.40;;;7.10;100.00;94360.00;4923511;28;20325;-66
2022/11/18 06:34:18;;;;;;;2.75;1.27;;;8.60;84.80;;;7.12;100.00;94368.44;4924347;28;20414;-66
2022/11/18 06:36:44;;;;;;;0.45;0.30;;;8.70;85.00;;;7.10;100.00;94376.47;4925653;28;20361;-67
2022/11/18 06:39:11;;;;;;;0.30;0.30;;;8.60;84.70;;;7.10;100.00;94370.47;4924908;28;20445;-66
2022/11/18 06:41:37;;;;;;;2.35;0.35;;;8.60;84.70;;;7.12;100.00;94373.66;4921969;28;20702;-66
2022/11/18 06:44:03;;;;;;;0.52;0.40;;;8.60;84.60;;;7.11;100.00;94380.69;4916748;28;20519;-66
2022/11/18 06:49:13;;;;;;;0.90;0.30;;;8.70;85.00;;;7.11;100.00;94385.94;4945385;28;20530;-66
2022/11/18 06:51:40;;;;;;;1.35;0.82;;;8.70;85.00;;;7.13;100.00;94383.91;4924901;28;20658;-66
2022/11/18 06:54:06;;;;;;;0.73;0.50;;;8.60;84.90;;;7.15;100.00;94389.72;4925925;28;20349;-67
2022/11/18 06:56:33;;;;;;;0.95;0.60;;;8.70;84.90;;;7.15;100.00;94400.19;4909167;28;20406;-67
2022/11/18 06:58:59;;;;;;;1.27;0.70;;;8.70;84.90;;;7.16;100.00;94401.78;4941779;28;20340;-66
2022/11/18 07:01:28;;;;;;;1.13;0.70;;;8.60;85.50;;;7.14;100.00;94403.00;4922091;28;20287;-67
2022/11/18 07:03:56;;;;;;;1.58;0.88;;;8.60;85.10;;;7.16;100.00;94411.44;4918896;28;20529;-66
2022/11/18 07:06:24;;;;;;;2.00;0.60;;;8.60;85.30;;;7.18;100.00;94417.25;4938451;28;20302;-67
2022/11/18 07:08:50;;;;;;;1.45;0.65;;;8.80;85.60;;;7.19;100.00;94421.47;4934084;28;20562;-66
2022/11/18 07:11:20;;;;;;;1.67;0.65;;;8.80;85.20;;;7.21;100.00;94420.25;4917917;28;20040;-66
2022/11/18 07:13:46;;;;;;;1.60;0.30;;;8.70;85.40;;;7.21;100.00;94425.47;4917735;28;20341;-68
2022/11/18 07:16:15;;;;;;;0.60;0.30;;;8.80;85.30;;;7.23;100.00;94433.13;4923010;28;20340;-68
2022/11/18 07:18:42;;;;;;;0.55;0.30;;;8.80;85.30;;;7.25;100.00;94434.53;4915630;28;20598;-68
2022/11/18 07:21:14;;;;;;;0.73;0.50;;;8.80;85.00;;;7.29;100.00;94437.53;4891336;28;20453;-69
2022/11/18 07:23:40;;;;;;;0.40;0.40;;;9.00;85.10;;;7.32;100.00;94434.50;4893061;28;20336;-70
2022/11/18 07:26:06;;;;;;;1.25;0.60;;;9.00;84.80;;;7.33;100.00;94444.75;4907379;28;20397;-68
2022/11/18 07:28:33;;;;;;;4.78;0.60;;;8.90;84.80;;;7.35;100.00;94447.16;4907920;28;20337;-67
2022/11/18 07:31:06;;;;;;;1.50;0.60;;;9.00;84.90;;;7.37;100.00;94451.16;4925086;28;20472;-68
2022/11/18 07:33:33;;;;;;;1.58;0.60;;;9.00;84.90;;;7.40;100.00;94452.56;4930094;28;20551;-68
2022/11/18 07:36:24;;;;;;;0.80;0.55;;;9.10;84.80;;;7.42;100.00;94462.81;4940516;28;20340;-62
2022/11/18 07:38:51;;;;;;;0.75;0.40;;;9.10;84.60;;;7.41;100.00;94466.44;4953283;28;20296;-68
2022/11/18 07:41:26;;;;;;;1.20;0.57;;;9.00;84.80;;;7.43;100.00;94469.63;4929671;28;20616;-70
2022/11/18 07:43:53;;;;;;;1.63;0.47;;;9.10;84.50;;;7.45;100.00;94472.84;4907020;28;20450;-70
2022/11/18 07:46:28;;;;;;;0.57;0.47;;;9.10;84.00;;;7.45;100.00;94475.47;4958870;28;20373;-68
2022/11/18 07:48:57;;;;;;;1.67;0.45;;;9.10;83.70;;;7.45;100.00;94470.22;4925639;28;20321;-69
2022/11/18 07:51:28;;;;;;;1.45;0.52;;;9.10;82.90;;;7.47;100.00;94481.28;4921165;28;20347;-70
2022/11/18 07:53:54;;;;;;;1.35;0.57;;;9.10;83.10;;;7.48;100.00;94483.72;4917366;28;20408;-68
2022/11/18 07:56:20;;;;;;;1.65;0.50;;;9.10;83.10;;;7.48;100.00;94488.16;4923802;28;20334;-69
2022/11/18 07:58:47;;;;;;;1.90;0.70;;;9.10;82.70;;;7.48;100.00;94493.38;4916110;28;20702;-71
2022/11/18 08:01:18;;;;;;;1.00;0.60;;;9.10;82.90;;;7.50;100.00;94496.59;4921622;28;20436;-69
2022/11/18 08:03:45;;;;;;;0.70;0.60;;;9.10;82.80;;;7.52;100.00;94499.78;4914855;28;20563;-69
2022/11/18 08:06:13;;;;;;;0.85;0.60;;;9.10;82.80;;;7.50;100.00;94501.81;4954320;28;20156;-67
2022/11/18 08:08:39;;;;;;;1.58;0.80;;;9.10;83.00;;;7.47;100.00;94508.28;4965230;28;20562;-65
2022/11/18 08:11:07;;;;;;;1.00;0.70;;;8.90;83.40;;;7.47;100.00;94504.81;4967352;28;20044;-65
2022/11/18 08:13:33;;;;;;;1.38;0.70;;;9.00;83.30;;;7.49;100.00;94510.69;4982585;28;20029;-65
2022/11/18 08:15:59;;;;;;;1.20;0.75;;;9.10;83.00;;;7.49;100.00;94506.25;4943900;28;20028;-67
2022/11/18 08:18:27;;;;;;;1.05;0.60;;;9.10;82.20;;;7.53;100.00;94512.66;4979779;28;20636;-67
2022/11/18 08:20:53;;;;;;;1.83;0.68;;;9.10;82.50;;;7.55;100.00;94509.84;4985137;28;20143;-66
2022/11/18 08:23:19;;;;;;;1.20;0.65;;;9.10;82.10;;;7.55;100.00;94510.63;4969565;28;20309;-67
2022/11/18 08:25:45;;;;;;;1.10;0.57;;;9.10;82.50;;;7.56;100.00;94519.28;4986585;28;20352;-66
2022/11/18 08:28:11;;;;;;;0.90;0.50;;;9.10;82.50;;;7.55;100.00;94515.06;4986577;28;20036;-67
2022/11/18 08:30:38;;;;;;;2.45;0.82;;;9.10;82.20;;;7.54;100.00;94527.34;4979749;28;20066;-67
2022/11/18 08:33:04;;;;;;;1.15;0.60;;;9.10;82.70;;;7.54;100.00;94529.16;4969835;28;20032;-68
2022/11/18 08:35:30;;;;;;;1.52;0.63;;;9.10;82.50;;;7.51;100.00;94530.38;4985675;28;20147;-67
2022/11/18 08:37:56;;;;;;;1.10;0.70;;;9.00;82.70;;;7.48;100.00;94525.56;4969547;28;20029;-66
2022/11/18 08:40:22;;;;;;;3.05;1.70;;;9.00;82.40;;;7.47;100.00;94536.22;4969041;28;20106;-66
2022/11/18 08:42:48;;;;;;;1.88;1.13;;;9.00;82.10;;;7.43;100.00;94532.41;4981215;28;20554;-66
2022/11/18 08:45:14;;;;;;;1.80;0.93;;;8.90;82.00;;;7.37;100.00;94540.09;4974441;28;20110;-65
2022/11/18 08:47:40;;;;;;;1.27;0.70;;;8.80;82.40;;;7.33;100.00;94535.47;4989088;28;20312;-66
2022/11/18 08:50:08;;;;;;;3.45;0.80;;;8.70;82.80;;;7.27;100.00;94542.34;5006383;28;20044;-67
2022/11/18 08:52:34;;;;;;;1.00;0.50;;;8.70;82.90;;;7.24;100.00;94545.38;4990510;28;20032;-68
2022/11/18 08:55:00;;;;;;;0.65;0.30;;;8.70;82.80;;;7.21;100.00;94539.72;4990322;28;20562;-67
2022/11/18 08:57:26;;;;;;;2.28;0.63;;;8.70;82.70;;;7.19;100.00;94545.16;5004490;28;20036;-68
2022/11/18 08:59:52;;;;;;;1.08;0.60;;;8.70;82.70;;;7.16;100.00;94542.97;5022153;28;20390;-67
2022/11/18 09:02:19;;;;;;;0.73;0.50;;;8.60;82.80;;;7.14;100.00;94542.38;4988933;28;20348;-68
2022/11/18 09:04:50;;;;;;;6.78;4.63;;;8.60;83.10;;;7.13;100.00;94538.16;4989658;28;20139;-67
2022/11/18 09:07:20;;;;;;;2.50;1.30;;;8.60;82.90;;;7.11;100.00;94545.41;4989423;28;20542;-68
2022/11/18 09:09:46;;;;;;;2.38;1.35;;;8.60;82.50;;;7.15;100.00;94546.59;5012093;28;20060;-68
2022/11/18 09:12:16;;;;;;;2.17;0.90;;;8.80;81.80;;;7.22;100.00;94557.03;4969222;28;20103;-68
2022/11/18 09:14:45;;;;;;;4.93;1.40;;;9.00;81.20;;;7.32;100.00;94552.19;4966600;28;20032;-71
2022/11/18 09:17:13;;;;;;;1.30;0.70;;;9.20;81.00;;;7.43;100.00;94558.56;4969923;28;20029;-68
2022/11/18 09:19:39;;;;;;;1.83;1.13;;;9.40;79.80;;;7.51;100.00;94560.97;4964724;28;20155;-68
2022/11/18 09:22:05;;;;;;;1.50;0.73;;;9.30;79.90;;;7.57;100.00;94560.13;4985142;28;20105;-68
2022/11/18 09:24:31;;;;;;;0.80;0.40;;;9.40;78.90;;;7.64;100.00;94555.66;4963337;28;20032;-69
2022/11/18 09:26:57;;;;;;;0.85;0.60;;;9.40;78.60;;;7.71;100.00;94566.94;4984873;28;20039;-66
2022/11/18 09:29:24;;;;;;;0.93;0.40;;;9.60;78.80;;;7.78;100.00;94562.47;4961717;28;20392;-68
2022/11/18 09:31:51;;;;;;;0.70;0.40;;;9.70;78.30;;;7.87;100.00;94563.81;4986602;28;20059;-65
2022/11/18 09:34:17;;;;;;;2.05;0.52;;;10.00;76.90;;;8.02;100.00;94570.59;4978022;28;20032;-66
2022/11/18 09:36:43;;;;;;;1.10;0.60;;;10.50;76.60;;;8.19;100.00;94564.63;4952593;28;20579;-67
2022/11/18 09:39:09;;;;;;;3.58;1.27;;;11.00;75.60;;;8.39;100.00;94566.34;4984734;28;20051;-66
2022/11/18 09:41:58;;;;;;;1.95;0.88;;;11.60;71.80;;;8.74;100.00;94566.66;4978722;28;20237;-67
2022/11/18 09:44:52;;;;;;;1.90;1.00;;;12.80;69.10;;;9.14;100.00;94567.91;4964275;28;20620;-66
2022/11/18 09:47:32;;;;;;;1.45;0.90;;;13.80;66.20;;;9.59;100.00;94569.44;5001050;28;20508;-68
2022/11/18 09:50:21;;;;;;;1.53;0.80;;;13.60;64.90;;;9.85;100.00;94569.13;4967602;28;20024;-66
2022/11/18 09:53:08;;;;;;;1.45;0.90;;;13.10;66.30;;;9.90;100.00;94571.06;4980655;28;20844;-65
2022/11/18 09:55:37;;;;;;;1.35;0.60;;;12.30;66.90;;;9.88;100.00;94571.31;5000691;28;20554;-66
2022/11/18 09:58:03;;;;;;;1.25;0.73;;;12.30;67.80;;;9.93;100.00;94575.88;4952707;28;20593;-67
2022/11/18 10:00:29;;;;;;;1.98;1.10;;;12.60;67.90;;;10.03;100.00;94578.81;4962788;28;20047;-66
2022/11/18 10:03:10;;;;;;;1.60;0.88;;;12.90;66.90;;;10.09;100.00;94586.59;4969212;28;20059;-67
2022/11/18 10:05:53;;;;;;;0.68;0.55;;;12.60;65.60;;;10.11;100.00;94589.00;4995524;28;20113;-67
2022/11/18 10:08:39;;;;;;;0.75;0.45;;;12.60;65.80;;;10.11;100.00;94589.00;4986382;28;20451;-66
2022/11/18 10:11:21;;;;;;;0.47;0.30;;;12.70;66.00;;;10.18;100.00;94588.88;4970810;28;20041;-68
2022/11/18 10:13:55;;;;;;;0.63;0.43;;;12.60;66.40;;;10.23;100.00;94592.50;4982409;28;20135;-66
2022/11/18 10:16:45;;;;;;;0.70;0.40;;;12.60;66.00;;;10.28;100.00;94586.56;4998248;28;20128;-68
2022/11/18 10:19:33;;;;;;;0.32;0.20;;;12.50;66.10;;;10.32;98.26;94592.97;4942486;28;20393;-68
2022/11/18 10:22:31;;;;;;;0.63;0.30;;;12.30;66.60;;;10.28;96.93;94595.25;4925381;28;20353;-68
2022/11/18 10:24:57;;;;;;;0.20;0.17;;;12.00;66.90;;;10.14;99.26;94594.59;4932961;28;20312;-67
2022/11/18 10:27:36;;;;;;;0.50;0.20;;;11.70;68.10;;;10.07;98.04;94593.09;4957426;28;20321;-68
2022/11/18 10:30:26;;;;;;;0.63;0.22;;;11.60;68.80;;;9.92;98.84;94601.34;4910932;28;20360;-67
2022/11/18 10:32:59;;;;;;;0.40;0.22;;;11.40;69.50;;;9.85;100.00;94599.84;4932891;28;20336;-68
2022/11/18 10:35:33;;;;;;;0.22;0.20;;;11.50;69.20;;;9.82;100.00;94601.88;4925670;28;20349;-68
2022/11/18 10:38:12;;;;;;;0.40;0.28;;;11.50;69.90;;;9.79;99.99;94597.06;4915059;28;20408;-69
2022/11/18 10:40:48;;;;;;;1.52;0.30;;;11.50;69.90;;;9.69;99.70;94595.97;4943335;28;20498;-68
2022/11/18 10:43:50;;;;;;;0.30;0.20;;;11.30;70.30;;;9.58;99.56;94600.16;4943328;28;20317;-67
2022/11/18 10:46:27;;;;;;;2.20;0.40;;;11.10;71.20;;;9.47;100.00;94601.66;4957639;28;20530;-70
2022/11/18 10:49:08;;;;;;;0.20;0.20;;;11.00;71.90;;;9.37;100.00;94616.31;4943523;28;20337;-70
2022/11/18 10:51:39;;;;;;;0.63;0.20;;;10.80;73.00;;;9.28;100.00;94613.19;4975175;28;20353;-72
2022/11/18 10:54:21;;;;;;;0.30;0.20;;;10.60;74.00;;;9.16;100.00;94599.97;4926146;28;20386;-65
2022/11/18 10:57:02;;;;;;;0.57;0.30;;;10.60;74.50;;;9.04;100.00;94614.00;4913821;28;20314;-64
2022/11/18 10:59:54;;;;;;;0.30;0.20;;;10.30;75.30;;;8.92;100.00;94605.25;4942765;28;20321;-69